臺東航空站 - ATIS

METAR RCFN 181200Z 00000KT 9999 FEW020 BKN180 BKN240 29/26 Q1009 NOSIG RMK A2981=

站台狀態:Online
最後更新:2019-06-18 22:45:02